sensor_id;sensor_type;location;lat;lon;timestamp;P1;durP1;ratioP1;P2;durP2;ratioP2
17796;SDS011;55596;53.554;9.916;2023-04-23T00:00:58;8.53;;;7.67;;
17796;SDS011;55596;53.554;9.916;2023-04-23T00:03:26;9.83;;;7.47;;
17796;SDS011;55596;53.554;9.916;2023-04-23T00:05:55;10.10;;;7.73;;
17796;SDS011;55596;53.554;9.916;2023-04-23T00:08:23;8.60;;;7.80;;
17796;SDS011;55596;53.554;9.916;2023-04-23T00:10:50;11.77;;;7.73;;
17796;SDS011;55596;53.554;9.916;2023-04-23T00:13:18;8.87;;;7.63;;
17796;SDS011;55596;53.554;9.916;2023-04-23T00:15:47;8.77;;;7.97;;
17796;SDS011;55596;53.554;9.916;2023-04-23T00:18:14;9.00;;;7.80;;
17796;SDS011;55596;53.554;9.916;2023-04-23T00:20:42;9.70;;;8.57;;
17796;SDS011;55596;53.554;9.916;2023-04-23T00:23:09;9.87;;;8.87;;
17796;SDS011;55596;53.554;9.916;2023-04-23T00:25:36;11.10;;;10.00;;
17796;SDS011;55596;53.554;9.916;2023-04-23T00:28:04;11.27;;;10.27;;
17796;SDS011;55596;53.554;9.916;2023-04-23T00:30:31;11.77;;;10.30;;
17796;SDS011;55596;53.554;9.916;2023-04-23T00:33:00;11.87;;;10.60;;
17796;SDS011;55596;53.554;9.916;2023-04-23T00:35:27;12.27;;;10.97;;
17796;SDS011;55596;53.554;9.916;2023-04-23T00:37:54;15.20;;;11.80;;
17796;SDS011;55596;53.554;9.916;2023-04-23T00:40:21;15.20;;;12.13;;
17796;SDS011;55596;53.554;9.916;2023-04-23T00:42:49;14.37;;;12.93;;
17796;SDS011;55596;53.554;9.916;2023-04-23T00:45:32;18.23;;;14.30;;
17796;SDS011;55596;53.554;9.916;2023-04-23T00:48:01;16.60;;;14.80;;
17796;SDS011;55596;53.554;9.916;2023-04-23T00:50:29;17.70;;;15.00;;
17796;SDS011;55596;53.554;9.916;2023-04-23T00:53:05;16.97;;;15.30;;
17796;SDS011;55596;53.554;9.916;2023-04-23T00:55:33;17.87;;;15.97;;
17796;SDS011;55596;53.554;9.916;2023-04-23T00:58:01;17.70;;;15.93;;
17796;SDS011;55596;53.554;9.916;2023-04-23T01:00:28;18.73;;;16.80;;
17796;SDS011;55596;53.554;9.916;2023-04-23T01:02:56;19.53;;;17.70;;
17796;SDS011;55596;53.554;9.916;2023-04-23T01:05:26;21.00;;;18.80;;
17796;SDS011;55596;53.554;9.916;2023-04-23T01:07:54;20.80;;;18.70;;
17796;SDS011;55596;53.554;9.916;2023-04-23T01:10:21;22.03;;;19.80;;
17796;SDS011;55596;53.554;9.916;2023-04-23T01:12:49;25.10;;;20.60;;
17796;SDS011;55596;53.554;9.916;2023-04-23T01:15:16;26.50;;;21.10;;
17796;SDS011;55596;53.554;9.916;2023-04-23T01:17:44;23.20;;;20.70;;
17796;SDS011;55596;53.554;9.916;2023-04-23T01:20:11;23.70;;;20.70;;
17796;SDS011;55596;53.554;9.916;2023-04-23T01:22:43;26.10;;;21.53;;
17796;SDS011;55596;53.554;9.916;2023-04-23T01:25:10;24.60;;;21.37;;
17796;SDS011;55596;53.554;9.916;2023-04-23T01:27:37;24.90;;;21.50;;
17796;SDS011;55596;53.554;9.916;2023-04-23T01:30:06;26.53;;;21.03;;
17796;SDS011;55596;53.554;9.916;2023-04-23T01:32:34;23.17;;;20.67;;
17796;SDS011;55596;53.554;9.916;2023-04-23T01:35:03;23.07;;;20.70;;
17796;SDS011;55596;53.554;9.916;2023-04-23T01:37:32;21.10;;;18.93;;
17796;SDS011;55596;53.554;9.916;2023-04-23T01:40:02;21.83;;;18.70;;
17796;SDS011;55596;53.554;9.916;2023-04-23T01:42:30;20.00;;;18.00;;
17796;SDS011;55596;53.554;9.916;2023-04-23T01:44:57;20.93;;;18.40;;
17796;SDS011;55596;53.554;9.916;2023-04-23T01:47:24;19.53;;;17.57;;
17796;SDS011;55596;53.554;9.916;2023-04-23T01:49:52;17.37;;;15.67;;
17796;SDS011;55596;53.554;9.916;2023-04-23T01:52:19;12.33;;;11.17;;
17796;SDS011;55596;53.554;9.916;2023-04-23T01:54:46;12.80;;;11.60;;
17796;SDS011;55596;53.554;9.916;2023-04-23T01:57:15;13.17;;;11.97;;
17796;SDS011;55596;53.554;9.916;2023-04-23T01:59:48;15.73;;;14.23;;
17796;SDS011;55596;53.554;9.916;2023-04-23T02:02:15;18.13;;;16.33;;
17796;SDS011;55596;53.554;9.916;2023-04-23T02:04:43;19.70;;;17.80;;
17796;SDS011;55596;53.554;9.916;2023-04-23T02:07:10;20.90;;;18.80;;
17796;SDS011;55596;53.554;9.916;2023-04-23T02:09:38;22.00;;;19.83;;
17796;SDS011;55596;53.554;9.916;2023-04-23T02:12:05;24.83;;;22.33;;
17796;SDS011;55596;53.554;9.916;2023-04-23T02:14:34;25.50;;;22.90;;
17796;SDS011;55596;53.554;9.916;2023-04-23T02:17:01;27.43;;;24.43;;
17796;SDS011;55596;53.554;9.916;2023-04-23T02:19:28;32.13;;;27.57;;
17796;SDS011;55596;53.554;9.916;2023-04-23T02:21:58;35.67;;;29.97;;
17796;SDS011;55596;53.554;9.916;2023-04-23T02:24:25;38.13;;;32.83;;
17796;SDS011;55596;53.554;9.916;2023-04-23T02:26:53;36.37;;;30.97;;
17796;SDS011;55596;53.554;9.916;2023-04-23T02:29:22;36.50;;;32.37;;
17796;SDS011;55596;53.554;9.916;2023-04-23T02:31:50;38.00;;;32.47;;
17796;SDS011;55596;53.554;9.916;2023-04-23T02:34:17;36.60;;;31.00;;
17796;SDS011;55596;53.554;9.916;2023-04-23T02:36:45;37.83;;;31.97;;
17796;SDS011;55596;53.554;9.916;2023-04-23T02:39:12;35.20;;;31.13;;
17796;SDS011;55596;53.554;9.916;2023-04-23T02:41:42;34.83;;;29.10;;
17796;SDS011;55596;53.554;9.916;2023-04-23T02:44:09;32.90;;;27.30;;
17796;SDS011;55596;53.554;9.916;2023-04-23T02:46:37;28.67;;;24.77;;
17796;SDS011;55596;53.554;9.916;2023-04-23T02:49:05;28.90;;;25.00;;
17796;SDS011;55596;53.554;9.916;2023-04-23T02:51:32;25.17;;;22.30;;
17796;SDS011;55596;53.554;9.916;2023-04-23T02:54:00;25.27;;;22.57;;
17796;SDS011;55596;53.554;9.916;2023-04-23T02:56:28;27.87;;;22.77;;
17796;SDS011;55596;53.554;9.916;2023-04-23T02:58:55;28.00;;;22.97;;
17796;SDS011;55596;53.554;9.916;2023-04-23T03:01:22;27.80;;;22.77;;
17796;SDS011;55596;53.554;9.916;2023-04-23T03:03:49;27.07;;;24.23;;
17796;SDS011;55596;53.554;9.916;2023-04-23T03:06:18;28.00;;;23.77;;
17796;SDS011;55596;53.554;9.916;2023-04-23T03:08:45;30.33;;;25.07;;
17796;SDS011;55596;53.554;9.916;2023-04-23T03:11:12;30.73;;;26.10;;
17796;SDS011;55596;53.554;9.916;2023-04-23T03:13:39;30.40;;;24.53;;
17796;SDS011;55596;53.554;9.916;2023-04-23T03:16:07;32.83;;;26.80;;
17796;SDS011;55596;53.554;9.916;2023-04-23T03:18:34;34.93;;;26.57;;
17796;SDS011;55596;53.554;9.916;2023-04-23T03:21:01;32.50;;;26.23;;
17796;SDS011;55596;53.554;9.916;2023-04-23T03:23:30;30.17;;;25.83;;
17796;SDS011;55596;53.554;9.916;2023-04-23T03:25:57;30.40;;;24.77;;
17796;SDS011;55596;53.554;9.916;2023-04-23T03:28:24;31.87;;;26.10;;
17796;SDS011;55596;53.554;9.916;2023-04-23T03:30:51;27.00;;;22.93;;
17796;SDS011;55596;53.554;9.916;2023-04-23T03:33:19;25.67;;;22.80;;
17796;SDS011;55596;53.554;9.916;2023-04-23T03:35:46;27.53;;;21.87;;
17796;SDS011;55596;53.554;9.916;2023-04-23T03:38:13;25.60;;;22.87;;
17796;SDS011;55596;53.554;9.916;2023-04-23T03:40:41;28.30;;;24.37;;
17796;SDS011;55596;53.554;9.916;2023-04-23T03:43:09;28.70;;;25.00;;
17796;SDS011;55596;53.554;9.916;2023-04-23T03:45:36;27.23;;;23.57;;
17796;SDS011;55596;53.554;9.916;2023-04-23T03:48:03;28.53;;;23.07;;
17796;SDS011;55596;53.554;9.916;2023-04-23T03:50:30;27.40;;;23.77;;
17796;SDS011;55596;53.554;9.916;2023-04-23T03:53:02;25.77;;;21.67;;
17796;SDS011;55596;53.554;9.916;2023-04-23T03:55:30;24.37;;;21.63;;
17796;SDS011;55596;53.554;9.916;2023-04-23T03:57:58;23.13;;;19.80;;
17796;SDS011;55596;53.554;9.916;2023-04-23T04:00:27;23.20;;;20.70;;
17796;SDS011;55596;53.554;9.916;2023-04-23T04:02:54;21.20;;;18.73;;
17796;SDS011;55596;53.554;9.916;2023-04-23T04:05:21;22.53;;;18.23;;
17796;SDS011;55596;53.554;9.916;2023-04-23T04:07:48;21.23;;;18.80;;
17796;SDS011;55596;53.554;9.916;2023-04-23T04:10:15;22.10;;;18.57;;
17796;SDS011;55596;53.554;9.916;2023-04-23T04:12:43;19.10;;;16.47;;
17796;SDS011;55596;53.554;9.916;2023-04-23T04:15:13;21.27;;;17.03;;
17796;SDS011;55596;53.554;9.916;2023-04-23T04:17:40;18.83;;;15.23;;
17796;SDS011;55596;53.554;9.916;2023-04-23T04:20:10;16.47;;;14.43;;
17796;SDS011;55596;53.554;9.916;2023-04-23T04:22:37;17.63;;;13.80;;
17796;SDS011;55596;53.554;9.916;2023-04-23T04:25:05;14.43;;;12.50;;
17796;SDS011;55596;53.554;9.916;2023-04-23T04:27:32;15.43;;;13.40;;
17796;SDS011;55596;53.554;9.916;2023-04-23T04:29:59;15.40;;;12.23;;
17796;SDS011;55596;53.554;9.916;2023-04-23T04:32:28;14.07;;;12.30;;
17796;SDS011;55596;53.554;9.916;2023-04-23T04:34:55;16.00;;;12.33;;
17796;SDS011;55596;53.554;9.916;2023-04-23T04:37:23;15.57;;;11.10;;
17796;SDS011;55596;53.554;9.916;2023-04-23T04:39:50;16.40;;;11.33;;
17796;SDS011;55596;53.554;9.916;2023-04-23T04:42:18;15.10;;;11.63;;
17796;SDS011;55596;53.554;9.916;2023-04-23T04:44:45;11.97;;;10.77;;
17796;SDS011;55596;53.554;9.916;2023-04-23T04:47:12;20.20;;;11.20;;
17796;SDS011;55596;53.554;9.916;2023-04-23T04:49:41;12.37;;;10.57;;
17796;SDS011;55596;53.554;9.916;2023-04-23T04:52:09;12.10;;;9.87;;
17796;SDS011;55596;53.554;9.916;2023-04-23T04:54:36;13.97;;;10.80;;
17796;SDS011;55596;53.554;9.916;2023-04-23T04:57:03;13.73;;;9.00;;
17796;SDS011;55596;53.554;9.916;2023-04-23T04:59:30;13.90;;;9.27;;
17796;SDS011;55596;53.554;9.916;2023-04-23T05:01:57;15.63;;;9.53;;
17796;SDS011;55596;53.554;9.916;2023-04-23T05:04:25;10.93;;;8.90;;
17796;SDS011;55596;53.554;9.916;2023-04-23T05:06:53;8.97;;;8.07;;
17796;SDS011;55596;53.554;9.916;2023-04-23T05:09:20;9.70;;;7.87;;
17796;SDS011;55596;53.554;9.916;2023-04-23T05:11:47;11.53;;;8.60;;
17796;SDS011;55596;53.554;9.916;2023-04-23T05:14:15;11.37;;;8.17;;
17796;SDS011;55596;53.554;9.916;2023-04-23T05:16:42;10.87;;;8.73;;
17796;SDS011;55596;53.554;9.916;2023-04-23T05:19:10;22.10;;;8.73;;
17796;SDS011;55596;53.554;9.916;2023-04-23T05:21:37;11.80;;;8.53;;
17796;SDS011;55596;53.554;9.916;2023-04-23T05:24:06;10.40;;;8.10;;
17796;SDS011;55596;53.554;9.916;2023-04-23T05:26:33;11.43;;;9.23;;
17796;SDS011;55596;53.554;9.916;2023-04-23T05:29:00;12.83;;;8.63;;
17796;SDS011;55596;53.554;9.916;2023-04-23T05:31:28;15.70;;;9.00;;
17796;SDS011;55596;53.554;9.916;2023-04-23T05:33:55;14.47;;;8.93;;
17796;SDS011;55596;53.554;9.916;2023-04-23T05:36:22;11.03;;;7.90;;
17796;SDS011;55596;53.554;9.916;2023-04-23T05:38:49;10.40;;;8.57;;
17796;SDS011;55596;53.554;9.916;2023-04-23T05:41:18;10.57;;;8.13;;
17796;SDS011;55596;53.554;9.916;2023-04-23T05:43:45;12.93;;;8.67;;
17796;SDS011;55596;53.554;9.916;2023-04-23T05:46:12;11.30;;;8.63;;
17796;SDS011;55596;53.554;9.916;2023-04-23T05:48:39;9.77;;;8.77;;
17796;SDS011;55596;53.554;9.916;2023-04-23T05:51:07;10.10;;;8.57;;
17796;SDS011;55596;53.554;9.916;2023-04-23T05:53:34;11.30;;;9.13;;
17796;SDS011;55596;53.554;9.916;2023-04-23T05:56:01;10.43;;;9.30;;
17796;SDS011;55596;53.554;9.916;2023-04-23T05:58:30;12.57;;;9.87;;
17796;SDS011;55596;53.554;9.916;2023-04-23T06:00:57;10.80;;;9.70;;
17796;SDS011;55596;53.554;9.916;2023-04-23T06:03:24;11.80;;;9.90;;
17796;SDS011;55596;53.554;9.916;2023-04-23T06:05:51;11.00;;;9.83;;
17796;SDS011;55596;53.554;9.916;2023-04-23T06:08:18;12.27;;;10.17;;
17796;SDS011;55596;53.554;9.916;2023-04-23T06:10:45;9.70;;;8.23;;
17796;SDS011;55596;53.554;9.916;2023-04-23T06:13:13;10.53;;;8.20;;
17796;SDS011;55596;53.554;9.916;2023-04-23T06:15:41;11.97;;;7.37;;
17796;SDS011;55596;53.554;9.916;2023-04-23T06:18:08;9.30;;;6.80;;
17796;SDS011;55596;53.554;9.916;2023-04-23T06:20:35;6.63;;;5.60;;
17796;SDS011;55596;53.554;9.916;2023-04-23T06:23:03;7.47;;;5.93;;
17796;SDS011;55596;53.554;9.916;2023-04-23T06:25:30;8.70;;;5.37;;
17796;SDS011;55596;53.554;9.916;2023-04-23T06:27:58;7.23;;;5.20;;
17796;SDS011;55596;53.554;9.916;2023-04-23T06:30:25;6.37;;;5.20;;
17796;SDS011;55596;53.554;9.916;2023-04-23T06:32:53;10.23;;;5.53;;
17796;SDS011;55596;53.554;9.916;2023-04-23T06:35:20;6.07;;;5.03;;
17796;SDS011;55596;53.554;9.916;2023-04-23T06:37:48;8.63;;;5.20;;
17796;SDS011;55596;53.554;9.916;2023-04-23T06:40:15;7.70;;;5.07;;
17796;SDS011;55596;53.554;9.916;2023-04-23T06:42:42;8.63;;;5.13;;
17796;SDS011;55596;53.554;9.916;2023-04-23T06:45:11;7.93;;;4.83;;
17796;SDS011;55596;53.554;9.916;2023-04-23T06:47:39;8.73;;;5.10;;
17796;SDS011;55596;53.554;9.916;2023-04-23T06:50:08;8.97;;;4.93;;
17796;SDS011;55596;53.554;9.916;2023-04-23T06:52:35;7.73;;;5.17;;
17796;SDS011;55596;53.554;9.916;2023-04-23T06:55:02;7.20;;;4.63;;
17796;SDS011;55596;53.554;9.916;2023-04-23T06:57:30;9.17;;;4.90;;
17796;SDS011;55596;53.554;9.916;2023-04-23T06:59:57;8.50;;;5.03;;
17796;SDS011;55596;53.554;9.916;2023-04-23T07:02:25;6.93;;;4.90;;
17796;SDS011;55596;53.554;9.916;2023-04-23T07:04:53;8.27;;;5.03;;
17796;SDS011;55596;53.554;9.916;2023-04-23T07:07:22;6.50;;;4.73;;
17796;SDS011;55596;53.554;9.916;2023-04-23T07:09:50;6.13;;;4.70;;
17796;SDS011;55596;53.554;9.916;2023-04-23T07:12:17;8.73;;;5.33;;
17796;SDS011;55596;53.554;9.916;2023-04-23T07:14:44;8.63;;;5.47;;
17796;SDS011;55596;53.554;9.916;2023-04-23T07:17:11;8.93;;;5.70;;
17796;SDS011;55596;53.554;9.916;2023-04-23T07:19:38;9.87;;;6.70;;
17796;SDS011;55596;53.554;9.916;2023-04-23T07:22:06;8.00;;;6.03;;
17796;SDS011;55596;53.554;9.916;2023-04-23T07:24:34;8.97;;;6.30;;
17796;SDS011;55596;53.554;9.916;2023-04-23T07:27:02;7.27;;;5.67;;
17796;SDS011;55596;53.554;9.916;2023-04-23T07:29:29;7.40;;;5.33;;
17796;SDS011;55596;53.554;9.916;2023-04-23T07:31:56;6.27;;;5.67;;
17796;SDS011;55596;53.554;9.916;2023-04-23T07:34:24;8.20;;;5.90;;
17796;SDS011;55596;53.554;9.916;2023-04-23T07:36:51;8.50;;;5.93;;
17796;SDS011;55596;53.554;9.916;2023-04-23T07:39:20;9.73;;;5.53;;
17796;SDS011;55596;53.554;9.916;2023-04-23T07:41:49;6.93;;;5.40;;
17796;SDS011;55596;53.554;9.916;2023-04-23T07:44:16;5.93;;;4.87;;
17796;SDS011;55596;53.554;9.916;2023-04-23T07:46:43;6.10;;;5.03;;
17796;SDS011;55596;53.554;9.916;2023-04-23T07:49:10;5.67;;;4.80;;
17796;SDS011;55596;53.554;9.916;2023-04-23T07:51:37;6.17;;;4.87;;
17796;SDS011;55596;53.554;9.916;2023-04-23T07:54:07;6.07;;;5.00;;
17796;SDS011;55596;53.554;9.916;2023-04-23T07:56:37;6.80;;;5.47;;
17796;SDS011;55596;53.554;9.916;2023-04-23T07:59:05;8.87;;;5.17;;
17796;SDS011;55596;53.554;9.916;2023-04-23T08:01:33;9.00;;;5.90;;
17796;SDS011;55596;53.554;9.916;2023-04-23T08:04:01;7.53;;;5.90;;
17796;SDS011;55596;53.554;9.916;2023-04-23T08:06:28;6.33;;;5.50;;
17796;SDS011;55596;53.554;9.916;2023-04-23T08:08:57;7.30;;;5.23;;
17796;SDS011;55596;53.554;9.916;2023-04-23T08:11:24;7.93;;;5.33;;
17796;SDS011;55596;53.554;9.916;2023-04-23T08:13:53;7.27;;;5.90;;
17796;SDS011;55596;53.554;9.916;2023-04-23T08:16:22;7.97;;;5.73;;
17796;SDS011;55596;53.554;9.916;2023-04-23T08:18:49;6.83;;;5.50;;
17796;SDS011;55596;53.554;9.916;2023-04-23T08:21:16;7.13;;;5.07;;
17796;SDS011;55596;53.554;9.916;2023-04-23T08:23:44;10.87;;;5.40;;
17796;SDS011;55596;53.554;9.916;2023-04-23T08:26:11;5.97;;;4.87;;
17796;SDS011;55596;53.554;9.916;2023-04-23T08:28:40;7.73;;;5.70;;
17796;SDS011;55596;53.554;9.916;2023-04-23T08:31:10;5.70;;;5.00;;
17796;SDS011;55596;53.554;9.916;2023-04-23T08:33:39;5.80;;;5.20;;
17796;SDS011;55596;53.554;9.916;2023-04-23T08:36:07;7.87;;;5.27;;
17796;SDS011;55596;53.554;9.916;2023-04-23T08:38:34;5.93;;;5.30;;
17796;SDS011;55596;53.554;9.916;2023-04-23T08:41:01;7.73;;;5.37;;
17796;SDS011;55596;53.554;9.916;2023-04-23T08:43:32;8.90;;;5.60;;
17796;SDS011;55596;53.554;9.916;2023-04-23T08:46:01;6.60;;;5.23;;
17796;SDS011;55596;53.554;9.916;2023-04-23T08:48:29;7.37;;;5.30;;
17796;SDS011;55596;53.554;9.916;2023-04-23T08:50:58;7.23;;;5.53;;
17796;SDS011;55596;53.554;9.916;2023-04-23T08:53:27;6.33;;;4.97;;
17796;SDS011;55596;53.554;9.916;2023-04-23T08:55:56;6.77;;;5.63;;
17796;SDS011;55596;53.554;9.916;2023-04-23T08:58:25;6.67;;;5.07;;
17796;SDS011;55596;53.554;9.916;2023-04-23T09:00:53;6.53;;;5.47;;
17796;SDS011;55596;53.554;9.916;2023-04-23T09:03:22;7.60;;;5.80;;
17796;SDS011;55596;53.554;9.916;2023-04-23T09:05:49;7.10;;;5.10;;
17796;SDS011;55596;53.554;9.916;2023-04-23T09:08:19;8.33;;;6.13;;
17796;SDS011;55596;53.554;9.916;2023-04-23T09:10:46;6.63;;;5.77;;
17796;SDS011;55596;53.554;9.916;2023-04-23T09:13:14;6.90;;;5.83;;
17796;SDS011;55596;53.554;9.916;2023-04-23T09:15:42;7.67;;;5.97;;
17796;SDS011;55596;53.554;9.916;2023-04-23T09:18:09;8.40;;;5.80;;
17796;SDS011;55596;53.554;9.916;2023-04-23T09:20:36;7.50;;;6.10;;
17796;SDS011;55596;53.554;9.916;2023-04-23T09:23:05;6.87;;;5.73;;
17796;SDS011;55596;53.554;9.916;2023-04-23T09:25:34;9.43;;;6.10;;
17796;SDS011;55596;53.554;9.916;2023-04-23T09:28:01;8.83;;;6.60;;
17796;SDS011;55596;53.554;9.916;2023-04-23T09:30:36;9.50;;;6.27;;
17796;SDS011;55596;53.554;9.916;2023-04-23T09:33:05;8.93;;;6.10;;
17796;SDS011;55596;53.554;9.916;2023-04-23T09:35:35;8.03;;;6.00;;
17796;SDS011;55596;53.554;9.916;2023-04-23T09:38:03;7.57;;;6.27;;
17796;SDS011;55596;53.554;9.916;2023-04-23T09:40:32;8.83;;;6.00;;
17796;SDS011;55596;53.554;9.916;2023-04-23T09:43:02;8.77;;;6.10;;
17796;SDS011;55596;53.554;9.916;2023-04-23T09:45:29;7.87;;;6.37;;
17796;SDS011;55596;53.554;9.916;2023-04-23T09:47:59;7.67;;;6.60;;
17796;SDS011;55596;53.554;9.916;2023-04-23T09:50:32;8.90;;;6.33;;
17796;SDS011;55596;53.554;9.916;2023-04-23T09:53:00;8.80;;;7.40;;
17796;SDS011;55596;53.554;9.916;2023-04-23T09:55:29;9.07;;;7.50;;
17796;SDS011;55596;53.554;9.916;2023-04-23T09:57:59;10.90;;;7.03;;
17796;SDS011;55596;53.554;9.916;2023-04-23T10:00:28;8.37;;;7.30;;
17796;SDS011;55596;53.554;9.916;2023-04-23T10:02:58;9.37;;;8.47;;
17796;SDS011;55596;53.554;9.916;2023-04-23T10:05:26;10.40;;;9.27;;
17796;SDS011;55596;53.554;9.916;2023-04-23T10:07:54;9.73;;;8.73;;
17796;SDS011;55596;53.554;9.916;2023-04-23T10:10:22;11.07;;;9.97;;
17796;SDS011;55596;53.554;9.916;2023-04-23T10:12:50;9.97;;;8.87;;
17796;SDS011;55596;53.554;9.916;2023-04-23T10:15:18;10.53;;;9.00;;
17796;SDS011;55596;53.554;9.916;2023-04-23T10:17:46;14.10;;;10.23;;
17796;SDS011;55596;53.554;9.916;2023-04-23T10:20:15;13.20;;;10.10;;
17796;SDS011;55596;53.554;9.916;2023-04-23T10:22:43;13.10;;;10.47;;
17796;SDS011;55596;53.554;9.916;2023-04-23T10:25:11;13.27;;;9.70;;
17796;SDS011;55596;53.554;9.916;2023-04-23T10:27:39;13.93;;;11.37;;
17796;SDS011;55596;53.554;9.916;2023-04-23T10:30:07;11.67;;;10.57;;
17796;SDS011;55596;53.554;9.916;2023-04-23T10:32:34;12.63;;;11.30;;
17796;SDS011;55596;53.554;9.916;2023-04-23T10:35:04;11.40;;;10.20;;
17796;SDS011;55596;53.554;9.916;2023-04-23T10:37:32;13.57;;;11.40;;
17796;SDS011;55596;53.554;9.916;2023-04-23T10:40:02;12.77;;;11.17;;
17796;SDS011;55596;53.554;9.916;2023-04-23T10:42:33;12.63;;;11.30;;
17796;SDS011;55596;53.554;9.916;2023-04-23T10:45:00;13.13;;;11.77;;
17796;SDS011;55596;53.554;9.916;2023-04-23T10:47:28;13.57;;;11.80;;
17796;SDS011;55596;53.554;9.916;2023-04-23T10:49:56;13.43;;;11.70;;
17796;SDS011;55596;53.554;9.916;2023-04-23T10:52:25;11.90;;;10.63;;
17796;SDS011;55596;53.554;9.916;2023-04-23T10:54:56;13.60;;;11.03;;
17796;SDS011;55596;53.554;9.916;2023-04-23T10:57:23;12.60;;;11.40;;
17796;SDS011;55596;53.554;9.916;2023-04-23T10:59:51;12.80;;;11.50;;
17796;SDS011;55596;53.554;9.916;2023-04-23T11:02:19;12.23;;;10.93;;
17796;SDS011;55596;53.554;9.916;2023-04-23T11:04:52;11.23;;;10.13;;
17796;SDS011;55596;53.554;9.916;2023-04-23T11:07:20;11.70;;;10.47;;
17796;SDS011;55596;53.554;9.916;2023-04-23T11:09:53;10.50;;;9.47;;
17796;SDS011;55596;53.554;9.916;2023-04-23T11:12:29;11.47;;;9.50;;
17796;SDS011;55596;53.554;9.916;2023-04-23T11:14:57;11.20;;;9.27;;
17796;SDS011;55596;53.554;9.916;2023-04-23T11:20:08;9.17;;;8.27;;
17796;SDS011;55596;53.554;9.916;2023-04-23T11:22:37;10.03;;;8.40;;
17796;SDS011;55596;53.554;9.916;2023-04-23T11:25:09;9.13;;;8.27;;
17796;SDS011;55596;53.554;9.916;2023-04-23T11:27:37;9.07;;;8.10;;
17796;SDS011;55596;53.554;9.916;2023-04-23T11:30:05;8.73;;;7.90;;
17796;SDS011;55596;53.554;9.916;2023-04-23T11:32:32;8.83;;;7.37;;
17796;SDS011;55596;53.554;9.916;2023-04-23T11:34:59;7.53;;;6.80;;
17796;SDS011;55596;53.554;9.916;2023-04-23T11:37:29;9.17;;;6.60;;
17796;SDS011;55596;53.554;9.916;2023-04-23T11:39:57;7.88;;;6.50;;
17796;SDS011;55596;53.554;9.916;2023-04-23T11:42:33;9.38;;;5.50;;
17796;SDS011;55596;53.554;9.916;2023-04-23T11:45:13;5.65;;;5.05;;
17796;SDS011;55596;53.554;9.916;2023-04-23T11:47:40;5.25;;;4.80;;
17796;SDS011;55596;53.554;9.916;2023-04-23T11:50:08;4.95;;;4.55;;
17796;SDS011;55596;53.554;9.916;2023-04-23T11:52:35;6.40;;;5.50;;
17796;SDS011;55596;53.554;9.916;2023-04-23T11:55:04;5.80;;;4.90;;
17796;SDS011;55596;53.554;9.916;2023-04-23T11:57:35;4.70;;;4.28;;
17796;SDS011;55596;53.554;9.916;2023-04-23T12:00:09;5.70;;;4.35;;
17796;SDS011;55596;53.554;9.916;2023-04-23T12:02:37;5.32;;;4.82;;
17796;SDS011;55596;53.554;9.916;2023-04-23T12:05:04;4.85;;;4.40;;
17796;SDS011;55596;53.554;9.916;2023-04-23T12:07:33;5.53;;;4.32;;
17796;SDS011;55596;53.554;9.916;2023-04-23T12:10:00;5.15;;;4.30;;
17796;SDS011;55596;53.554;9.916;2023-04-23T12:12:31;5.55;;;3.83;;
17796;SDS011;55596;53.554;9.916;2023-04-23T12:15:04;5.63;;;4.03;;
17796;SDS011;55596;53.554;9.916;2023-04-23T12:17:32;4.60;;;3.50;;
17796;SDS011;55596;53.554;9.916;2023-04-23T12:20:02;4.90;;;4.00;;
17796;SDS011;55596;53.554;9.916;2023-04-23T12:22:30;4.07;;;3.65;;
17796;SDS011;55596;53.554;9.916;2023-04-23T12:24:58;9.90;;;3.78;;
17796;SDS011;55596;53.554;9.916;2023-04-23T12:27:29;4.22;;;3.75;;
17796;SDS011;55596;53.554;9.916;2023-04-23T12:29:58;6.75;;;3.63;;
17796;SDS011;55596;53.554;9.916;2023-04-23T12:32:26;5.97;;;3.50;;
17796;SDS011;55596;53.554;9.916;2023-04-23T12:34:54;5.82;;;3.25;;
17796;SDS011;55596;53.554;9.916;2023-04-23T12:37:24;3.83;;;3.30;;
17796;SDS011;55596;53.554;9.916;2023-04-23T12:39:51;4.63;;;3.45;;
17796;SDS011;55596;53.554;9.916;2023-04-23T12:42:23;3.30;;;2.88;;
17796;SDS011;55596;53.554;9.916;2023-04-23T12:44:50;3.30;;;2.65;;
17796;SDS011;55596;53.554;9.916;2023-04-23T12:47:19;3.47;;;3.03;;
17796;SDS011;55596;53.554;9.916;2023-04-23T12:49:48;4.63;;;3.05;;
17796;SDS011;55596;53.554;9.916;2023-04-23T12:52:17;3.08;;;2.50;;
17796;SDS011;55596;53.554;9.916;2023-04-23T12:54:44;5.00;;;2.80;;
17796;SDS011;55596;53.554;9.916;2023-04-23T12:57:16;4.25;;;3.20;;
17796;SDS011;55596;53.554;9.916;2023-04-23T12:59:46;7.97;;;2.70;;
17796;SDS011;55596;53.554;9.916;2023-04-23T13:02:14;3.85;;;2.78;;
17796;SDS011;55596;53.554;9.916;2023-04-23T13:04:42;4.22;;;2.38;;
17796;SDS011;55596;53.554;9.916;2023-04-23T13:07:10;4.20;;;2.60;;
17796;SDS011;55596;53.554;9.916;2023-04-23T13:09:38;6.07;;;2.58;;
17796;SDS011;55596;53.554;9.916;2023-04-23T13:12:05;3.10;;;2.80;;
17796;SDS011;55596;53.554;9.916;2023-04-23T13:14:32;3.47;;;2.70;;
17796;SDS011;55596;53.554;9.916;2023-04-23T13:17:00;4.68;;;2.50;;
17796;SDS011;55596;53.554;9.916;2023-04-23T13:19:27;6.78;;;2.88;;
17796;SDS011;55596;53.554;9.916;2023-04-23T13:21:55;3.92;;;2.67;;
17796;SDS011;55596;53.554;9.916;2023-04-23T13:24:25;3.58;;;2.65;;
17796;SDS011;55596;53.554;9.916;2023-04-23T13:26:52;5.35;;;2.20;;
17796;SDS011;55596;53.554;9.916;2023-04-23T13:29:20;3.42;;;2.25;;
17796;SDS011;55596;53.554;9.916;2023-04-23T13:31:47;3.75;;;2.25;;
17796;SDS011;55596;53.554;9.916;2023-04-23T13:34:15;2.75;;;2.08;;
17796;SDS011;55596;53.554;9.916;2023-04-23T13:36:42;7.97;;;2.60;;
17796;SDS011;55596;53.554;9.916;2023-04-23T13:39:09;4.60;;;2.50;;
17796;SDS011;55596;53.554;9.916;2023-04-23T13:41:39;2.63;;;2.42;;
17796;SDS011;55596;53.554;9.916;2023-04-23T13:44:06;3.20;;;2.47;;
17796;SDS011;55596;53.554;9.916;2023-04-23T13:46:33;6.40;;;2.40;;
17796;SDS011;55596;53.554;9.916;2023-04-23T13:49:01;3.92;;;2.42;;
17796;SDS011;55596;53.554;9.916;2023-04-23T13:51:28;3.50;;;2.38;;
17796;SDS011;55596;53.554;9.916;2023-04-23T13:53:55;4.75;;;2.38;;
17796;SDS011;55596;53.554;9.916;2023-04-23T13:56:23;3.75;;;2.15;;
17796;SDS011;55596;53.554;9.916;2023-04-23T13:58:52;2.50;;;1.98;;
17796;SDS011;55596;53.554;9.916;2023-04-23T14:01:23;4.97;;;2.50;;
17796;SDS011;55596;53.554;9.916;2023-04-23T14:03:51;4.00;;;2.47;;
17796;SDS011;55596;53.554;9.916;2023-04-23T14:06:18;4.53;;;2.15;;
17796;SDS011;55596;53.554;9.916;2023-04-23T14:08:45;4.68;;;2.20;;
17796;SDS011;55596;53.554;9.916;2023-04-23T14:11:12;2.85;;;2.20;;
17796;SDS011;55596;53.554;9.916;2023-04-23T14:13:39;3.08;;;2.05;;
17796;SDS011;55596;53.554;9.916;2023-04-23T14:16:08;3.13;;;2.40;;
17796;SDS011;55596;53.554;9.916;2023-04-23T14:18:35;3.30;;;2.28;;
17796;SDS011;55596;53.554;9.916;2023-04-23T14:21:03;3.92;;;2.85;;
17796;SDS011;55596;53.554;9.916;2023-04-23T14:26:31;7.57;;;4.00;;
17796;SDS011;55596;53.554;9.916;2023-04-23T14:29:03;29.47;;;5.93;;
17796;SDS011;55596;53.554;9.916;2023-04-23T14:31:36;25.80;;;8.63;;
17796;SDS011;55596;53.554;9.916;2023-04-23T14:34:04;12.60;;;9.23;;
17796;SDS011;55596;53.554;9.916;2023-04-23T14:36:31;22.00;;;11.83;;
17796;SDS011;55596;53.554;9.916;2023-04-23T14:38:58;17.83;;;12.60;;
17796;SDS011;55596;53.554;9.916;2023-04-23T14:41:29;23.83;;;14.03;;
17796;SDS011;55596;53.554;9.916;2023-04-23T14:43:57;20.13;;;14.07;;
17796;SDS011;55596;53.554;9.916;2023-04-23T14:46:24;21.70;;;16.10;;